Belle Fourche, South Dakota
Current Conditions -  °F | °C
As of 5:35 PM on Wednesday 17 Dec 2014 (Local Time) from KSPF Reporting Station
Haze Haze  
Wind Chill: 19°   Ceiling: 400
Heat Index: 19°   Visibility: 5mi
Dew Point: 18°   Wind: 3mph
Humidity: 93%   Direction: 30°NNE
Pressure: 29.98"   Gusts: NA
Location:  44.67°N, 103.85°W
Report Text: KSPF 180035Z AUTO 03003KT 5SM BR OVC004 M07/M08 A2998 RMK AO2
Loading
Personal Weather Stations






























Interactive Weather Map New forecast layout! Learn more

10-Day Weather Forecast

Advertisements
Track Severe Weather on mobile